createdAt,value
2023-02-25T01:23:27.865Z,3.25
2023-02-25T01:25:00.907Z,3.70
2023-02-25T01:26:36.925Z,3.65
2023-02-25T01:28:09.894Z,4.10
2023-02-25T01:29:43.331Z,3.72
2023-02-25T01:32:50.289Z,5.03
2023-02-25T01:34:23.427Z,4.70
2023-02-25T01:35:56.353Z,4.65
2023-02-25T01:37:28.482Z,4.97
2023-02-25T01:41:02.966Z,6.00
2023-02-25T01:42:34.904Z,6.80
2023-02-25T01:44:13.983Z,6.30
2023-02-25T01:45:47.010Z,6.07
2023-02-25T01:47:21.275Z,5.78
2023-02-25T01:48:54.198Z,5.45
2023-02-25T01:50:34.785Z,5.53
2023-02-25T01:52:10.894Z,6.00
2023-02-25T01:53:46.428Z,6.47
2023-02-25T01:55:20.181Z,6.03
2023-02-25T01:56:56.681Z,6.15
2023-02-25T01:58:29.990Z,6.30
2023-02-25T02:01:44.657Z,5.45
2023-02-25T02:03:16.667Z,5.20
2023-02-25T02:04:52.377Z,5.28
2023-02-25T02:06:29.417Z,5.38
2023-02-25T02:08:02.426Z,4.57
2023-02-25T02:09:35.808Z,4.72
2023-02-25T02:12:45.138Z,4.60
2023-02-25T02:14:26.712Z,5.03
2023-02-25T02:16:10.347Z,4.47
2023-02-25T02:17:49.694Z,4.07
2023-02-25T02:19:39.481Z,4.65
2023-02-25T02:21:30.866Z,4.25
2023-02-25T02:23:28.121Z,4.20
2023-02-25T02:25:41.447Z,3.80
2023-02-25T02:27:25.796Z,3.97
2023-02-25T02:29:35.279Z,5.07
2023-02-25T02:31:20.721Z,4.57
2023-02-25T02:32:58.718Z,4.25
2023-02-25T02:34:41.394Z,4.70
2023-02-25T02:36:22.405Z,3.83
2023-02-25T02:38:04.781Z,4.05
2023-02-25T02:39:49.504Z,4.50
2023-02-25T02:41:30.760Z,3.78
2023-02-25T02:43:11.856Z,3.75
2023-02-25T02:44:53.168Z,3.30
2023-02-25T02:46:33.388Z,3.70
2023-02-25T02:48:10.669Z,3.83
2023-02-25T02:49:49.403Z,3.67
2023-02-25T02:51:27.822Z,3.33
2023-02-25T02:53:07.838Z,3.80
2023-02-25T02:54:44.294Z,3.90
2023-02-25T02:56:20.180Z,4.15
2023-02-25T02:57:58.003Z,3.53
2023-02-25T02:59:35.255Z,4.38
2023-02-25T03:01:13.766Z,4.57
2023-02-25T03:02:52.403Z,4.28
2023-02-25T03:04:31.921Z,4.05
2023-02-25T03:06:07.481Z,3.90
2023-02-25T03:07:45.057Z,4.28
2023-02-25T03:09:22.409Z,3.88
2023-02-25T03:10:55.670Z,3.95
2023-02-25T03:12:28.536Z,3.53
2023-02-25T03:14:01.727Z,4.20
2023-02-25T03:15:35.495Z,3.92
2023-02-25T03:17:12.208Z,3.75
2023-02-25T03:18:55.100Z,3.85
2023-02-25T03:20:31.048Z,4.43
2023-02-25T03:22:09.748Z,4.18
2023-02-25T03:23:44.929Z,4.65
2023-02-25T03:25:22.693Z,4.43
2023-02-25T03:26:55.677Z,4.07
2023-02-25T03:28:31.911Z,4.50
2023-02-25T03:30:09.548Z,4.18
2023-02-25T03:31:46.731Z,5.20
2023-02-25T03:33:26.974Z,4.03
2023-02-25T03:35:04.076Z,4.30
2023-02-25T03:36:41.197Z,4.03
2023-02-25T03:38:17.570Z,4.30
2023-02-25T03:39:56.278Z,3.85
2023-02-25T03:41:35.823Z,3.58
2023-02-25T03:43:13.014Z,3.65
2023-02-25T03:44:50.173Z,3.40
2023-02-25T03:46:23.260Z,3.45
2023-02-25T03:47:59.065Z,4.07
2023-02-25T03:49:36.506Z,3.30
2023-02-25T03:51:11.264Z,3.40
2023-02-25T03:52:44.197Z,2.90
2023-02-25T03:54:17.592Z,2.95
2023-02-25T03:57:25.030Z,3.40
2023-02-25T03:58:57.010Z,2.70
2023-02-25T04:00:32.268Z,2.80
2023-02-25T04:02:04.829Z,2.90
2023-02-25T04:03:37.829Z,2.95
2023-02-25T04:05:11.262Z,3.70
2023-02-25T04:08:17.368Z,3.80
2023-02-25T04:09:50.326Z,4.22
2023-02-25T04:11:23.308Z,3.78
2023-02-25T04:12:56.276Z,2.65
2023-02-25T04:14:29.286Z,2.90
2023-02-25T04:16:02.304Z,2.63
2023-02-25T04:17:36.076Z,2.38
2023-02-25T04:19:09.055Z,2.85
2023-02-25T04:20:42.172Z,2.90
2023-02-25T04:22:16.634Z,2.72
2023-02-25T04:23:49.630Z,2.30
2023-02-25T04:25:22.848Z,2.38
2023-02-25T04:26:58.435Z,3.25
2023-02-25T04:28:31.525Z,2.40
2023-02-25T04:30:05.542Z,2.67
2023-02-25T04:31:38.692Z,2.70
2023-02-25T04:33:12.638Z,2.90
2023-02-25T04:34:45.615Z,2.55
2023-02-25T04:36:26.482Z,2.10
2023-02-25T04:38:00.834Z,2.60
2023-02-25T04:39:34.091Z,2.40
2023-02-25T04:41:07.102Z,2.50
2023-02-25T04:42:39.209Z,2.30
2023-02-25T04:44:12.655Z,2.28
2023-02-25T04:45:46.718Z,2.63
2023-02-25T04:47:19.242Z,2.15
2023-02-25T04:48:52.236Z,2.10
2023-02-25T04:50:26.026Z,2.55
2023-02-25T04:51:59.578Z,2.53
2023-02-25T04:53:34.227Z,2.75
2023-02-25T04:55:09.793Z,2.60
2023-02-25T04:56:42.876Z,2.95
2023-02-25T04:58:15.808Z,3.03
2023-02-25T04:59:48.967Z,2.55
2023-02-25T05:01:22.171Z,2.47
2023-02-25T05:02:55.404Z,2.15
2023-02-25T05:04:28.536Z,2.60
2023-02-25T05:06:00.513Z,3.00
2023-02-25T05:07:33.490Z,3.10
2023-02-25T05:09:09.315Z,2.35
2023-02-25T05:10:43.224Z,2.35
2023-02-25T05:12:16.633Z,2.95
2023-02-25T05:15:21.633Z,2.30
2023-02-25T05:16:54.661Z,2.72
2023-02-25T05:18:27.630Z,2.80
2023-02-25T05:19:59.753Z,2.45
2023-02-25T05:21:32.812Z,2.50
2023-02-25T05:23:05.839Z,3.25
2023-02-25T05:24:39.650Z,2.65
2023-02-25T05:26:13.998Z,3.03
2023-02-25T05:27:46.010Z,2.42
2023-02-25T05:29:19.036Z,2.83
2023-02-25T05:30:52.708Z,2.95
2023-02-25T05:32:25.882Z,2.80
2023-02-25T05:33:58.977Z,2.40
2023-02-25T05:35:32.569Z,3.13
2023-02-25T05:37:05.536Z,2.40
2023-02-25T05:38:38.486Z,2.72
2023-02-25T05:40:14.058Z,2.50
2023-02-25T05:41:47.259Z,2.75
2023-02-25T05:43:19.299Z,2.95
2023-02-25T05:44:52.280Z,2.38
2023-02-25T05:46:26.645Z,2.63
2023-02-25T05:48:00.117Z,2.25
2023-02-25T05:49:33.140Z,2.40
2023-02-25T05:51:08.003Z,2.70
2023-02-25T05:52:39.980Z,2.63
2023-02-25T05:54:12.932Z,2.72
2023-02-25T05:55:47.649Z,2.47
2023-02-25T05:57:20.626Z,2.30
2023-02-25T05:58:53.856Z,1.95
2023-02-25T06:00:26.903Z,2.40
2023-02-25T06:01:59.997Z,3.03
2023-02-25T06:03:33.041Z,2.50
2023-02-25T06:05:07.084Z,2.90
2023-02-25T06:06:40.550Z,3.13
2023-02-25T06:08:13.815Z,3.00
2023-02-25T06:09:46.995Z,2.53
2023-02-25T06:11:24.548Z,2.40
2023-02-25T06:12:57.498Z,2.88
2023-02-25T06:14:30.440Z,3.72
2023-02-25T06:16:03.670Z,3.53
2023-02-25T06:17:36.715Z,2.25
2023-02-25T06:19:11.697Z,2.60
2023-02-25T06:20:44.711Z,2.10
2023-02-25T06:22:17.685Z,1.90
2023-02-25T06:23:50.470Z,2.15
2023-02-25T06:25:29.884Z,2.72
2023-02-25T06:27:04.249Z,2.13
2023-02-25T06:28:37.294Z,2.13
2023-02-25T06:30:11.624Z,2.00
2023-02-25T06:31:44.766Z,1.92
2023-02-25T06:33:16.734Z,2.45
2023-02-25T06:34:49.751Z,1.60
2023-02-25T06:36:23.047Z,2.20
2023-02-25T06:37:56.938Z,2.08
2023-02-25T06:39:30.018Z,1.98
2023-02-25T06:41:07.222Z,3.05
2023-02-25T06:42:41.531Z,2.40
2023-02-25T06:44:15.870Z,2.50
2023-02-25T06:45:48.022Z,2.30
2023-02-25T06:47:23.117Z,2.20
2023-02-25T06:48:57.305Z,2.17
2023-02-25T06:50:30.388Z,2.92
2023-02-25T06:52:03.389Z,2.28
2023-02-25T06:53:36.564Z,2.25
2023-02-25T06:55:10.832Z,2.05
2023-02-25T06:56:43.954Z,2.25
2023-02-25T06:58:18.757Z,2.22
2023-02-25T06:59:53.372Z,2.25
2023-02-25T07:01:27.259Z,2.28
2023-02-25T07:03:03.158Z,1.90
2023-02-25T07:04:36.180Z,2.30
2023-02-25T07:06:09.977Z,2.42
2023-02-25T07:07:43.125Z,2.00
2023-02-25T07:09:16.107Z,2.15
2023-02-25T07:10:49.147Z,2.30
2023-02-25T07:12:22.603Z,2.10
2023-02-25T07:13:56.949Z,2.17
2023-02-25T07:15:29.980Z,1.80
2023-02-25T07:17:03.833Z,1.92
2023-02-25T07:18:36.960Z,2.40
2023-02-25T07:20:11.946Z,2.17
2023-02-25T07:21:45.455Z,2.20
2023-02-25T07:23:18.374Z,2.03
2023-02-25T07:24:51.273Z,2.20
2023-02-25T07:26:28.105Z,2.15
2023-02-25T07:28:01.259Z,1.90
2023-02-25T07:29:35.624Z,2.00
2023-02-25T07:31:11.445Z,1.98
2023-02-25T07:32:45.409Z,2.30
2023-02-25T07:34:19.375Z,1.92
2023-02-25T07:35:54.679Z,2.05
2023-02-25T07:37:27.616Z,2.22
2023-02-25T07:39:02.117Z,2.20
2023-02-25T07:40:35.077Z,2.58
2023-02-25T07:42:08.010Z,2.90
2023-02-25T07:43:40.837Z,2.28
2023-02-25T07:45:15.361Z,5.10
2023-02-25T07:46:48.398Z,2.60
2023-02-25T07:48:23.678Z,2.65
2023-02-25T07:49:56.663Z,2.50
2023-02-25T07:51:29.779Z,2.38
2023-02-25T07:53:02.723Z,2.72
2023-02-25T07:54:35.754Z,2.72
2023-02-25T07:56:09.157Z,2.80
2023-02-25T07:59:14.911Z,2.40
2023-02-25T08:00:49.194Z,2.88
2023-02-25T08:02:22.585Z,1.92
2023-02-25T08:05:29.507Z,2.50
2023-02-25T08:07:02.681Z,2.40
2023-02-25T08:10:06.980Z,2.35
2023-02-25T08:11:40.863Z,2.55
2023-02-25T08:13:14.282Z,2.10
2023-02-25T08:16:22.090Z,2.55
2023-02-25T08:17:55.779Z,2.38
2023-02-25T08:19:28.924Z,2.28
2023-02-25T08:21:02.989Z,2.42
2023-02-25T08:22:36.152Z,2.30
2023-02-25T08:24:09.673Z,2.15
2023-02-25T08:25:41.582Z,2.03
2023-02-25T08:27:14.521Z,1.80
2023-02-25T08:28:47.943Z,2.45
2023-02-25T08:31:56.547Z,2.50
2023-02-25T08:33:29.809Z,2.00
2023-02-25T08:35:02.915Z,2.40
2023-02-25T08:36:37.015Z,2.60
2023-02-25T08:38:10.419Z,2.35
2023-02-25T08:41:16.178Z,2.88
2023-02-25T08:42:49.093Z,2.30
2023-02-25T08:44:22.889Z,2.15
2023-02-25T08:45:56.958Z,2.80
2023-02-25T08:47:32.108Z,2.63
2023-02-25T08:49:07.252Z,2.70
2023-02-25T08:50:41.082Z,2.22
2023-02-25T08:52:16.032Z,2.28
2023-02-25T08:53:52.438Z,2.53
2023-02-25T08:55:26.112Z,3.20
2023-02-25T08:57:00.308Z,2.40
2023-02-25T08:58:33.505Z,1.98
2023-02-25T09:00:09.609Z,2.60
2023-02-25T09:01:46.014Z,2.35
2023-02-25T09:03:20.732Z,2.40
2023-02-25T09:04:54.033Z,2.40
2023-02-25T09:08:01.096Z,1.83
2023-02-25T09:09:34.254Z,2.65
2023-02-25T09:11:07.589Z,2.40
2023-02-25T09:12:42.259Z,2.45
2023-02-25T09:14:15.980Z,2.88
2023-02-25T09:15:57.058Z,3.30
2023-02-25T09:17:29.994Z,2.25
2023-02-25T09:19:05.036Z,2.70
2023-02-25T09:20:37.943Z,2.60
2023-02-25T09:22:11.647Z,2.40
2023-02-25T09:23:44.594Z,2.60
2023-02-25T09:25:17.632Z,2.30
2023-02-25T09:26:50.732Z,2.58
2023-02-25T09:28:24.608Z,2.60
2023-02-25T09:29:57.624Z,2.60
2023-02-25T09:31:30.642Z,2.22
2023-02-25T09:33:03.878Z,2.50
2023-02-25T09:34:38.624Z,2.85
2023-02-25T09:36:13.771Z,2.30
2023-02-25T09:37:46.672Z,2.53
2023-02-25T09:39:19.768Z,2.60
2023-02-25T09:40:53.248Z,2.03
2023-02-25T09:42:31.389Z,2.05
2023-02-25T09:44:08.453Z,2.20
2023-02-25T09:45:47.124Z,2.30
2023-02-25T09:47:27.409Z,2.13
2023-02-25T09:49:05.626Z,2.42
2023-02-25T09:50:47.282Z,2.88
2023-02-25T09:52:28.638Z,2.88
2023-02-25T09:54:12.298Z,2.58
2023-02-25T09:55:48.709Z,2.17
2023-02-25T09:57:23.505Z,2.60
2023-02-25T09:58:59.222Z,2.80
2023-02-25T10:00:34.869Z,2.70
2023-02-25T10:02:21.664Z,2.60
2023-02-25T10:04:00.025Z,2.42
2023-02-25T10:05:41.950Z,2.60
2023-02-25T10:07:20.965Z,2.08
2023-02-25T10:09:02.772Z,2.65
2023-02-25T10:10:46.734Z,2.25
2023-02-25T10:12:31.141Z,2.65
2023-02-25T10:14:17.091Z,2.58
2023-02-25T10:15:59.747Z,2.17
2023-02-25T10:17:43.259Z,2.17
2023-02-25T10:19:30.693Z,2.53
2023-02-25T10:21:15.255Z,2.78
2023-02-25T10:23:00.113Z,2.50
2023-02-25T10:24:39.822Z,3.05
2023-02-25T10:26:18.972Z,2.17
2023-02-25T10:27:56.121Z,2.10
2023-02-25T10:29:35.079Z,2.30
2023-02-25T10:31:12.047Z,2.50
2023-02-25T10:32:47.358Z,1.77
2023-02-25T10:34:25.929Z,2.40
2023-02-25T10:36:06.780Z,2.10
2023-02-25T10:37:39.664Z,1.77
2023-02-25T10:39:14.001Z,1.80
2023-02-25T10:40:46.979Z,1.88
2023-02-25T10:42:19.885Z,2.05
2023-02-25T10:43:54.696Z,2.50
2023-02-25T10:45:29.594Z,1.92
2023-02-25T10:47:05.572Z,2.05
2023-02-25T10:48:39.270Z,1.95
2023-02-25T10:50:35.490Z,2.00
2023-02-25T10:52:18.022Z,2.15
2023-02-25T10:54:06.614Z,1.90
2023-02-25T10:55:55.075Z,2.13
2023-02-25T10:57:34.218Z,3.45
2023-02-25T10:59:09.485Z,2.17
2023-02-25T11:00:44.291Z,2.58
2023-02-25T11:02:25.621Z,2.00
2023-02-25T11:04:01.009Z,1.90
2023-02-25T11:05:41.378Z,2.83
2023-02-25T11:07:29.188Z,2.42
2023-02-25T11:09:04.168Z,2.22
2023-02-25T11:10:37.091Z,3.55
2023-02-25T11:12:20.226Z,2.00
2023-02-25T11:14:01.965Z,2.00
2023-02-25T11:15:45.255Z,2.20
2023-02-25T11:17:21.182Z,2.03
2023-02-25T11:18:58.231Z,1.88
2023-02-25T11:20:32.257Z,1.95
2023-02-25T11:22:10.594Z,2.70
2023-02-25T11:23:47.724Z,2.30
2023-02-25T11:25:23.847Z,2.58
2023-02-25T11:26:57.045Z,2.30
2023-02-25T11:28:35.660Z,2.13
2023-02-25T11:30:17.387Z,2.25
2023-02-25T11:31:54.681Z,2.45
2023-02-25T11:33:32.993Z,1.98
2023-02-25T11:35:10.172Z,2.20
2023-02-25T11:36:43.320Z,2.03
2023-02-25T11:38:26.363Z,2.17
2023-02-25T11:39:59.269Z,2.10
2023-02-25T11:41:33.129Z,2.78
2023-02-25T11:43:18.162Z,2.50
2023-02-25T11:45:00.687Z,2.55
2023-02-25T11:46:34.691Z,2.50
2023-02-25T11:48:19.553Z,2.67
2023-02-25T11:50:08.349Z,2.17
2023-02-25T11:51:47.012Z,2.47
2023-02-25T11:53:32.742Z,2.60
2023-02-25T11:55:19.961Z,3.17
2023-02-25T11:56:57.750Z,1.98
2023-02-25T11:58:40.269Z,2.40
2023-02-25T12:00:25.525Z,1.80
2023-02-25T12:02:31.790Z,1.83
2023-02-25T12:04:34.405Z,1.60
2023-02-25T12:06:19.861Z,3.10
2023-02-25T12:08:18.210Z,3.15
2023-02-25T12:10:19.584Z,2.45
2023-02-25T12:12:12.804Z,2.85
2023-02-25T12:14:20.561Z,2.80
2023-02-25T12:16:27.715Z,2.38
2023-02-25T12:18:19.412Z,2.38
2023-02-25T12:20:34.844Z,2.00
2023-02-25T12:22:52.589Z,2.40
2023-02-25T12:24:47.049Z,2.72
2023-02-25T12:26:31.003Z,3.13
2023-02-25T12:28:31.231Z,3.03
2023-02-25T12:30:43.557Z,3.83
2023-02-25T12:32:31.332Z,3.05
2023-02-25T12:34:25.038Z,3.28
2023-02-25T12:36:08.514Z,3.00
2023-02-25T12:38:26.793Z,2.67
2023-02-25T12:40:09.148Z,2.92
2023-02-25T12:41:47.593Z,2.80
2023-02-25T12:43:29.856Z,2.78
2023-02-25T12:45:16.312Z,3.00
2023-02-25T12:47:03.021Z,2.40
2023-02-25T12:49:03.817Z,2.35
2023-02-25T12:50:55.538Z,2.22
2023-02-25T12:52:39.286Z,1.80
2023-02-25T12:54:26.556Z,2.35
2023-02-25T12:56:26.611Z,1.90
2023-02-25T12:58:20.193Z,2.00
2023-02-25T13:00:05.570Z,1.90
2023-02-25T13:01:57.500Z,1.25
2023-02-25T13:03:55.762Z,1.10
2023-02-25T13:06:01.404Z,1.02
2023-02-25T13:08:02.842Z,1.08
2023-02-25T13:10:01.900Z,1.20
2023-02-25T13:12:10.035Z,2.08
2023-02-25T13:14:01.721Z,1.77
2023-02-25T13:15:46.769Z,2.88
2023-02-25T13:17:52.256Z,2.53
2023-02-25T13:19:55.467Z,1.40
2023-02-25T13:21:43.415Z,1.52
2023-02-25T13:23:33.237Z,1.80
2023-02-25T13:25:15.445Z,0.80
2023-02-25T13:27:13.797Z,0.88
2023-02-25T13:29:07.898Z,0.90
2023-02-25T13:30:47.600Z,1.05
2023-02-25T13:32:29.980Z,1.10
2023-02-25T13:34:15.998Z,0.77
2023-02-25T13:35:57.533Z,0.90
2023-02-25T13:37:42.288Z,0.90
2023-02-25T13:39:36.704Z,0.77
2023-02-25T13:43:14.089Z,0.63
2023-02-25T13:45:23.704Z,0.70
2023-02-25T13:47:23.850Z,0.60
2023-02-25T13:49:23.110Z,0.98
2023-02-25T13:51:17.956Z,0.73
2023-02-25T13:53:14.248Z,1.30
2023-02-25T13:55:17.678Z,0.88
2023-02-25T13:56:58.578Z,0.98
2023-02-25T13:58:42.354Z,1.00
2023-02-25T14:00:38.308Z,0.90
2023-02-25T14:02:50.905Z,0.90
2023-02-25T14:04:51.072Z,1.05
2023-02-25T14:06:44.145Z,0.80
2023-02-25T14:08:44.585Z,1.05
2023-02-25T14:10:30.012Z,1.00
2023-02-25T14:12:13.107Z,1.10
2023-02-25T14:14:05.529Z,0.90
2023-02-25T14:15:48.535Z,0.68
2023-02-25T14:17:41.063Z,0.80
2023-02-25T14:19:35.692Z,0.90
2023-02-25T14:21:34.522Z,0.98
2023-02-25T14:23:13.732Z,0.90
2023-02-25T14:24:51.671Z,0.85
2023-02-25T14:26:34.393Z,1.15
2023-02-25T14:28:15.528Z,1.10
2023-02-25T14:30:02.293Z,1.10
2023-02-25T14:31:45.039Z,1.00
2023-02-25T14:33:40.093Z,1.30
2023-02-25T14:35:28.920Z,1.20
2023-02-25T14:37:14.728Z,1.40
2023-02-25T14:39:15.513Z,1.13
2023-02-25T14:40:56.979Z,1.50
2023-02-25T14:42:58.711Z,1.50
2023-02-25T14:44:39.672Z,2.22
2023-02-25T14:46:31.473Z,1.50
2023-02-25T14:48:07.488Z,1.60
2023-02-25T14:49:46.234Z,1.38
2023-02-25T14:51:51.085Z,1.65
2023-02-25T14:57:08.842Z,1.20
2023-02-25T14:58:58.925Z,1.17
2023-02-25T15:01:09.964Z,1.48
2023-02-25T15:03:03.375Z,1.60
2023-02-25T15:04:55.064Z,2.08
2023-02-25T15:06:53.129Z,1.40
2023-02-25T15:08:40.095Z,1.20
2023-02-25T15:10:34.689Z,1.60
2023-02-25T15:12:26.263Z,1.23
2023-02-25T15:14:27.350Z,1.02
2023-02-25T15:16:28.455Z,1.15
2023-02-25T15:18:33.478Z,1.08
2023-02-25T15:20:23.320Z,1.10
2023-02-25T15:22:32.799Z,1.00
2023-02-25T15:24:11.303Z,1.00
2023-02-25T15:25:50.512Z,1.08
2023-02-25T15:27:56.517Z,1.05
2023-02-25T15:29:58.724Z,1.00
2023-02-25T15:31:33.933Z,0.95
2023-02-25T15:33:15.880Z,1.17
2023-02-25T15:34:56.970Z,1.17
2023-02-25T15:36:44.903Z,1.00
2023-02-25T15:38:21.194Z,0.90
2023-02-25T15:39:57.544Z,1.13
2023-02-25T15:41:45.922Z,1.17
2023-02-25T15:43:44.806Z,1.50
2023-02-25T15:45:39.778Z,1.27
2023-02-25T15:47:25.484Z,1.10
2023-02-25T15:49:06.998Z,1.20
2023-02-25T15:50:53.253Z,1.30
2023-02-25T15:52:57.707Z,1.20
2023-02-25T15:54:50.151Z,1.30
2023-02-25T15:56:47.379Z,1.20
2023-02-25T15:58:45.903Z,1.13
2023-02-25T16:00:55.376Z,1.55
2023-02-25T16:02:42.226Z,1.52
2023-02-25T16:04:41.678Z,1.08
2023-02-25T16:06:19.935Z,1.40
2023-02-25T16:08:16.685Z,1.50
2023-02-25T16:09:55.350Z,1.73
2023-02-25T16:11:35.644Z,1.90
2023-02-25T16:13:15.739Z,1.60
2023-02-25T16:14:49.083Z,1.55
2023-02-25T16:17:57.684Z,1.30
2023-02-25T16:19:35.938Z,1.23
2023-02-25T16:21:15.640Z,1.33
2023-02-25T16:22:49.910Z,1.20
2023-02-25T16:24:25.083Z,1.40
2023-02-25T16:26:09.154Z,1.30
2023-02-25T16:27:55.232Z,1.67
2023-02-25T16:29:41.017Z,1.90
2023-02-25T16:31:19.478Z,1.30
2023-02-25T16:33:00.190Z,1.60
2023-02-25T16:34:38.181Z,1.77
2023-02-25T16:36:16.497Z,1.30
2023-02-25T16:38:02.656Z,1.80
2023-02-25T16:39:36.760Z,1.40
2023-02-25T16:41:09.793Z,1.60
2023-02-25T16:42:42.731Z,1.80
2023-02-25T16:44:21.662Z,1.70
2023-02-25T16:45:58.622Z,1.40
2023-02-25T16:47:34.837Z,1.50
2023-02-25T16:49:11.715Z,1.42
2023-02-25T16:50:48.264Z,1.58
2023-02-25T16:52:25.642Z,1.60
2023-02-25T16:54:01.295Z,1.50
2023-02-25T16:55:40.534Z,1.50
2023-02-25T16:57:21.811Z,1.42
2023-02-25T16:59:04.976Z,1.30
2023-02-25T17:00:51.664Z,0.93
2023-02-25T17:02:25.984Z,1.40
2023-02-25T17:04:09.449Z,1.23
2023-02-25T17:05:42.349Z,1.10
2023-02-25T17:07:20.076Z,1.30
2023-02-25T17:08:53.095Z,1.40
2023-02-25T17:10:28.933Z,1.95
2023-02-25T17:12:03.812Z,1.73
2023-02-25T17:13:38.589Z,1.40
2023-02-25T17:15:17.968Z,1.75
2023-02-25T17:16:52.696Z,1.10
2023-02-25T17:18:30.975Z,1.48
2023-02-25T17:20:06.321Z,1.17
2023-02-25T17:21:41.443Z,1.08
2023-02-25T17:23:16.434Z,1.00
2023-02-25T17:24:50.712Z,0.95
2023-02-25T17:26:24.577Z,1.10
2023-02-25T17:27:59.226Z,1.00
2023-02-25T17:29:36.705Z,1.20
2023-02-25T17:31:12.952Z,1.20
2023-02-25T17:32:59.038Z,0.93
2023-02-25T17:34:35.610Z,1.00
2023-02-25T17:36:12.070Z,1.00
2023-02-25T17:37:45.049Z,1.00
2023-02-25T17:39:21.023Z,1.30
2023-02-25T17:40:55.532Z,1.17
2023-02-25T17:42:31.183Z,1.08
2023-02-25T17:44:04.289Z,1.30
2023-02-25T17:45:51.049Z,1.10
2023-02-25T17:47:27.388Z,1.13
2023-02-25T17:49:05.104Z,1.30
2023-02-25T17:50:38.130Z,1.30
2023-02-25T17:52:20.138Z,1.30
2023-02-25T17:53:57.770Z,1.25
2023-02-25T17:55:35.080Z,1.40
2023-02-25T17:57:10.991Z,1.10
2023-02-25T17:58:43.417Z,1.40
2023-02-25T18:00:23.720Z,1.50
2023-02-25T18:01:58.877Z,1.20
2023-02-25T18:03:42.946Z,1.37
2023-02-25T18:05:25.309Z,1.40
2023-02-25T18:06:58.316Z,1.20
2023-02-25T18:08:31.923Z,1.27
2023-02-25T18:10:08.389Z,1.10
2023-02-25T18:11:41.413Z,1.67
2023-02-25T18:13:25.262Z,1.20
2023-02-25T18:16:41.819Z,0.90
2023-02-25T18:18:22.047Z,1.17
2023-02-25T18:19:57.375Z,0.95
2023-02-25T18:21:31.806Z,0.90
2023-02-25T18:23:07.295Z,1.47
2023-02-25T18:24:40.230Z,1.20
2023-02-25T18:26:15.849Z,0.90
2023-02-25T18:27:54.895Z,1.00
2023-02-25T18:29:27.805Z,1.10
2023-02-25T18:31:01.349Z,0.88
2023-02-25T18:32:35.182Z,0.90
2023-02-25T18:34:08.204Z,0.90
2023-02-25T18:35:44.009Z,1.00
2023-02-25T18:37:20.359Z,0.70
2023-02-25T18:38:56.303Z,1.00
2023-02-25T18:40:31.344Z,0.87
2023-02-25T18:42:05.253Z,1.07
2023-02-25T18:43:41.933Z,0.90
2023-02-25T18:45:16.955Z,1.20
2023-02-25T18:46:49.944Z,1.20
2023-02-25T18:48:22.865Z,1.00
2023-02-25T18:49:55.797Z,1.30
2023-02-25T18:51:29.110Z,0.90
2023-02-25T18:53:03.979Z,1.13
2023-02-25T18:54:36.931Z,1.00
2023-02-25T18:56:15.557Z,0.98
2023-02-25T18:57:49.061Z,1.08
2023-02-25T18:59:21.980Z,0.90
2023-02-25T19:00:56.240Z,1.00
2023-02-25T19:02:31.376Z,1.30
2023-02-25T19:04:04.419Z,1.35
2023-02-25T19:05:37.618Z,1.30
2023-02-25T19:07:11.837Z,0.93
2023-02-25T19:08:46.366Z,1.20
2023-02-25T19:10:21.583Z,1.08
2023-02-25T19:11:54.549Z,1.30
2023-02-25T19:13:30.917Z,1.20
2023-02-25T19:15:06.106Z,1.50
2023-02-25T19:16:39.033Z,1.30
2023-02-25T19:18:13.576Z,1.33
2023-02-25T19:19:46.554Z,1.60
2023-02-25T19:21:21.243Z,1.33
2023-02-25T19:22:54.839Z,1.37
2023-02-25T19:24:29.155Z,1.40
2023-02-25T19:26:02.384Z,1.77
2023-02-25T19:27:35.529Z,1.45
2023-02-25T19:29:08.456Z,1.38
2023-02-25T19:30:43.346Z,1.33
2023-02-25T19:32:16.732Z,1.42
2023-02-25T19:35:22.579Z,1.40
2023-02-25T19:36:55.513Z,1.35
2023-02-25T19:38:28.571Z,1.40
2023-02-25T19:40:04.187Z,1.40
2023-02-25T19:41:38.443Z,1.40
2023-02-25T19:43:11.458Z,1.30
2023-02-25T19:44:44.356Z,1.20
2023-02-25T19:46:17.997Z,1.25
2023-02-25T19:47:51.644Z,1.10
2023-02-25T19:49:24.654Z,1.20
2023-02-25T19:50:57.627Z,1.20
2023-02-25T19:52:30.898Z,1.08
2023-02-25T19:54:04.208Z,1.10
2023-02-25T19:57:12.474Z,1.40
2023-02-25T20:00:21.323Z,1.30
2023-02-25T20:01:54.260Z,1.30
2023-02-25T20:03:27.201Z,1.38
2023-02-25T20:05:00.239Z,1.27
2023-02-25T20:06:34.673Z,1.20
2023-02-25T20:08:07.647Z,1.30
2023-02-25T20:09:40.696Z,1.60
2023-02-25T20:11:15.032Z,1.45
2023-02-25T20:12:49.101Z,1.35
2023-02-25T20:14:22.915Z,1.30
2023-02-25T20:16:00.903Z,1.37
2023-02-25T20:17:36.078Z,1.60
2023-02-25T20:19:09.769Z,1.37
2023-02-25T20:20:43.029Z,1.50
2023-02-25T20:22:15.901Z,1.45
2023-02-25T20:23:48.878Z,1.35
2023-02-25T20:25:22.075Z,1.52
2023-02-25T20:26:56.521Z,1.38
2023-02-25T20:28:29.489Z,1.60
2023-02-25T20:30:03.533Z,1.48
2023-02-25T20:31:36.545Z,1.47
2023-02-25T20:33:09.467Z,1.20
2023-02-25T20:34:43.076Z,1.55
2023-02-25T20:36:21.178Z,1.07
2023-02-25T20:38:16.794Z,1.10
2023-02-25T20:39:54.397Z,1.40
2023-02-25T20:41:28.212Z,1.40
2023-02-25T20:43:02.709Z,1.67
2023-02-25T20:44:35.985Z,1.70
2023-02-25T20:46:22.154Z,1.55
2023-02-25T20:47:56.095Z,1.17
2023-02-25T20:49:29.440Z,1.17
2023-02-25T20:52:35.537Z,1.30
2023-02-25T20:54:10.191Z,1.30
2023-02-25T20:55:43.162Z,0.90
2023-02-25T20:57:19.134Z,0.80
2023-02-25T20:58:54.801Z,0.90
2023-02-25T21:00:29.941Z,0.97
2023-02-25T21:02:02.845Z,0.73
2023-02-25T21:03:35.764Z,0.90
2023-02-25T21:05:09.261Z,0.80
2023-02-25T21:08:15.167Z,0.83
2023-02-25T21:09:48.125Z,0.80
2023-02-25T21:11:21.855Z,1.20
2023-02-25T21:12:55.316Z,1.07
2023-02-25T21:14:31.549Z,0.83
2023-02-25T21:16:06.964Z,1.20
2023-02-25T21:17:40.028Z,1.00
2023-02-25T21:19:13.008Z,1.10
2023-02-25T21:20:45.974Z,0.90
2023-02-25T21:22:18.886Z,0.77
2023-02-25T21:23:52.591Z,0.80
2023-02-25T21:25:25.632Z,0.70
2023-02-25T21:26:58.632Z,0.65
2023-02-25T21:28:32.744Z,0.90
2023-02-25T21:30:08.726Z,0.80
2023-02-25T21:31:42.526Z,0.93
2023-02-25T21:33:15.824Z,1.00
2023-02-25T21:34:49.246Z,1.00
2023-02-25T21:37:55.221Z,1.10
2023-02-25T21:39:28.442Z,1.00
2023-02-25T21:41:07.214Z,1.02
2023-02-25T21:42:40.152Z,1.10
2023-02-25T21:44:13.182Z,0.98
2023-02-25T21:45:55.506Z,0.90
2023-02-25T21:47:28.460Z,1.10
2023-02-25T21:49:01.401Z,1.10
2023-02-25T21:50:34.763Z,0.80
2023-02-25T21:53:40.485Z,0.90
2023-02-25T21:55:13.366Z,1.10
2023-02-25T21:56:46.295Z,0.80
2023-02-25T21:58:19.416Z,0.90
2023-02-25T21:59:53.711Z,0.80
2023-02-25T22:01:30.562Z,1.10
2023-02-25T22:03:03.747Z,0.97
2023-02-25T22:04:36.864Z,0.77
2023-02-25T22:06:10.538Z,1.15
2023-02-25T22:07:43.494Z,0.90
2023-02-25T22:09:16.513Z,1.00
2023-02-25T22:10:48.752Z,1.10
2023-02-25T22:12:21.754Z,0.80
2023-02-25T22:13:55.118Z,0.80
2023-02-25T22:15:28.445Z,1.10
2023-02-25T22:17:02.914Z,1.08
2023-02-25T22:18:36.486Z,1.17
2023-02-25T22:20:10.758Z,1.10
2023-02-25T22:21:43.909Z,0.93
2023-02-25T22:23:16.990Z,1.27
2023-02-25T22:24:50.074Z,0.80
2023-02-25T22:26:25.503Z,1.00
2023-02-25T22:27:59.549Z,0.90
2023-02-25T22:29:32.619Z,1.30
2023-02-25T22:31:06.575Z,1.10
2023-02-25T22:32:41.070Z,1.07
2023-02-25T22:34:14.404Z,1.00
2023-02-25T22:37:25.789Z,1.03
2023-02-25T22:38:58.789Z,1.40
2023-02-25T22:40:31.892Z,1.23
2023-02-25T22:42:05.009Z,1.13
2023-02-25T22:43:37.135Z,1.00
2023-02-25T22:45:11.345Z,1.00
2023-02-25T22:46:44.663Z,1.13
2023-02-25T22:49:51.950Z,0.93
2023-02-25T22:51:27.248Z,1.33
2023-02-25T22:52:59.605Z,1.20
2023-02-25T22:54:32.898Z,1.30
2023-02-25T22:56:08.961Z,1.15
2023-02-25T22:57:41.292Z,1.20
2023-02-25T22:59:15.027Z,0.90
2023-02-25T23:00:47.487Z,0.90
2023-02-25T23:02:20.480Z,1.05
2023-02-25T23:03:56.073Z,1.00
2023-02-25T23:05:28.041Z,1.17
2023-02-25T23:07:01.112Z,1.20
2023-02-25T23:08:33.706Z,1.10
2023-02-25T23:10:08.602Z,1.33
2023-02-25T23:11:43.772Z,1.10
2023-02-25T23:13:16.814Z,0.97
2023-02-25T23:14:49.814Z,1.10
2023-02-25T23:16:25.518Z,1.30
2023-02-25T23:18:03.359Z,1.17
2023-02-25T23:19:37.834Z,1.23
2023-02-25T23:21:15.677Z,1.80
2023-02-25T23:22:51.010Z,1.40
2023-02-25T23:24:23.987Z,1.30
2023-02-25T23:25:55.964Z,1.27
2023-02-25T23:27:30.432Z,1.40
2023-02-25T23:29:06.469Z,1.10
2023-02-25T23:30:40.387Z,1.40
2023-02-25T23:32:13.692Z,1.27
2023-02-25T23:35:21.098Z,1.20
2023-02-25T23:36:58.808Z,1.17
2023-02-25T23:38:32.071Z,1.00
2023-02-25T23:40:06.438Z,1.50
2023-02-25T23:41:40.015Z,1.87
2023-02-25T23:43:13.134Z,1.60
2023-02-25T23:44:46.420Z,1.45
2023-02-25T23:46:19.535Z,1.60
2023-02-25T23:47:52.954Z,1.20
2023-02-25T23:51:05.257Z,1.20
2023-02-25T23:52:38.564Z,1.03
2023-02-25T23:55:47.369Z,1.20
2023-02-25T23:57:20.410Z,1.10
2023-02-25T23:58:56.934Z,1.38
